createdAt,value
2023-04-23T00:00:54.867Z,40.31
2023-04-23T00:01:54.429Z,39.02
2023-04-23T00:02:53.514Z,41.43
2023-04-23T00:03:53.497Z,39.03
2023-04-23T00:04:53.510Z,38.80
2023-04-23T00:05:54.400Z,36.74
2023-04-23T00:06:53.379Z,38.39
2023-04-23T00:07:53.357Z,38.80
2023-04-23T00:08:53.358Z,39.12
2023-04-23T00:09:53.360Z,39.71
2023-04-23T00:10:53.328Z,43.89
2023-04-23T00:11:53.335Z,43.94
2023-04-23T00:12:53.312Z,43.71
2023-04-23T00:13:53.304Z,44.83
2023-04-23T00:14:53.288Z,47.22
2023-04-23T00:15:53.402Z,46.37
2023-04-23T00:16:53.276Z,44.78
2023-04-23T00:17:53.341Z,44.83
2023-04-23T00:18:53.329Z,43.39
2023-04-23T00:19:53.245Z,44.67
2023-04-23T00:20:53.224Z,44.58
2023-04-23T00:21:53.225Z,43.39
2023-04-23T00:22:53.202Z,43.02
2023-04-23T00:23:53.190Z,42.97
2023-04-23T00:24:53.187Z,44.79
2023-04-23T00:25:53.172Z,43.52
2023-04-23T00:26:53.182Z,44.73
2023-04-23T00:27:53.161Z,45.27
2023-04-23T00:28:53.141Z,42.85
2023-04-23T00:29:53.136Z,44.00
2023-04-23T00:30:53.128Z,45.72
2023-04-23T00:31:53.179Z,44.56
2023-04-23T00:32:53.146Z,40.87
2023-04-23T00:33:53.093Z,38.89
2023-04-23T00:34:53.090Z,39.89
2023-04-23T00:35:53.068Z,39.12
2023-04-23T00:36:53.081Z,45.37
2023-04-23T00:37:53.066Z,41.14
2023-04-23T00:38:53.049Z,39.50
2023-04-23T00:39:53.052Z,37.65
2023-04-23T00:40:53.056Z,38.01
2023-04-23T00:41:53.036Z,39.24
2023-04-23T00:42:53.014Z,39.80
2023-04-23T00:43:53.026Z,43.02
2023-04-23T00:44:53.000Z,44.09
2023-04-23T00:45:53.015Z,38.32
2023-04-23T00:46:52.983Z,38.19
2023-04-23T00:47:52.991Z,37.07
2023-04-23T00:48:52.957Z,36.65
2023-04-23T00:49:52.945Z,37.68
2023-04-23T00:50:52.935Z,36.58
2023-04-23T00:51:52.938Z,43.09
2023-04-23T00:52:52.923Z,39.09
2023-04-23T00:53:52.924Z,38.28
2023-04-23T00:54:52.897Z,39.17
2023-04-23T00:55:52.901Z,38.18
2023-04-23T00:56:52.900Z,37.13
2023-04-23T00:57:52.871Z,36.63
2023-04-23T00:58:52.855Z,38.57
2023-04-23T00:59:52.862Z,40.87
2023-04-23T01:00:52.862Z,39.78
2023-04-23T01:01:53.840Z,39.26
2023-04-23T01:02:53.031Z,40.18
2023-04-23T01:03:53.057Z,42.07
2023-04-23T01:04:52.800Z,42.37
2023-04-23T01:05:52.782Z,41.74
2023-04-23T01:06:52.791Z,40.90
2023-04-23T01:07:52.775Z,40.64
2023-04-23T01:08:52.767Z,39.42
2023-04-23T01:09:52.745Z,38.95
2023-04-23T01:10:52.759Z,39.13
2023-04-23T01:11:52.736Z,38.94
2023-04-23T01:12:52.723Z,38.22
2023-04-23T01:13:52.708Z,38.04
2023-04-23T01:14:52.701Z,39.18
2023-04-23T01:15:52.704Z,38.40
2023-04-23T01:16:52.759Z,45.43
2023-04-23T01:17:52.751Z,36.76
2023-04-23T01:18:52.663Z,37.62
2023-04-23T01:19:52.650Z,37.56
2023-04-23T01:20:52.660Z,37.84
2023-04-23T01:21:52.636Z,38.80
2023-04-23T01:22:52.625Z,41.55
2023-04-23T01:23:52.621Z,38.42
2023-04-23T01:24:52.602Z,37.68
2023-04-23T01:25:52.641Z,36.62
2023-04-23T01:26:52.587Z,41.93
2023-04-23T01:27:52.583Z,37.77
2023-04-23T01:28:52.578Z,39.04
2023-04-23T01:29:52.557Z,38.17
2023-04-23T01:30:52.569Z,37.57
2023-04-23T01:31:52.546Z,37.69
2023-04-23T01:32:52.558Z,38.20
2023-04-23T01:33:52.517Z,40.42
2023-04-23T01:34:52.509Z,38.35
2023-04-23T01:35:52.513Z,37.52
2023-04-23T01:36:52.489Z,37.81
2023-04-23T01:37:52.540Z,37.90
2023-04-23T01:38:52.466Z,38.41
2023-04-23T01:39:52.466Z,39.32
2023-04-23T01:40:52.462Z,38.68
2023-04-23T01:41:52.439Z,39.20
2023-04-23T01:42:52.472Z,38.38
2023-04-23T01:43:52.427Z,38.32
2023-04-23T01:44:52.399Z,38.62
2023-04-23T01:45:52.451Z,43.74
2023-04-23T01:46:52.388Z,39.48
2023-04-23T01:47:52.388Z,41.10
2023-04-23T01:48:52.367Z,40.86
2023-04-23T01:49:52.362Z,38.39
2023-04-23T01:50:52.357Z,37.62
2023-04-23T01:51:52.332Z,39.81
2023-04-23T01:52:52.333Z,42.58
2023-04-23T01:53:52.316Z,44.66
2023-04-23T01:54:52.308Z,38.42
2023-04-23T01:55:52.301Z,37.33
2023-04-23T01:56:52.285Z,37.91
2023-04-23T01:57:52.273Z,38.64
2023-04-23T01:58:52.268Z,39.33
2023-04-23T01:59:52.255Z,43.96
2023-04-23T02:00:52.267Z,45.61
2023-04-23T02:01:52.252Z,46.21
2023-04-23T02:02:52.369Z,42.20
2023-04-23T02:03:52.301Z,42.54
2023-04-23T02:04:52.209Z,42.48
2023-04-23T02:05:52.206Z,40.30
2023-04-23T02:06:52.202Z,41.27
2023-04-23T02:07:52.200Z,41.64
2023-04-23T02:08:52.165Z,39.48
2023-04-23T02:09:52.150Z,38.41
2023-04-23T02:10:52.156Z,38.25
2023-04-23T02:11:52.136Z,38.14
2023-04-23T02:12:52.121Z,38.05
2023-04-23T02:13:52.112Z,37.77
2023-04-23T02:14:52.116Z,39.09
2023-04-23T02:15:52.131Z,43.33
2023-04-23T02:16:52.097Z,39.60
2023-04-23T02:17:52.128Z,37.87
2023-04-23T02:18:52.066Z,38.05
2023-04-23T02:19:52.059Z,39.98
2023-04-23T02:20:52.056Z,41.08
2023-04-23T02:21:52.033Z,40.13
2023-04-23T02:22:53.041Z,40.21
2023-04-23T02:23:52.010Z,39.71
2023-04-23T02:24:52.007Z,40.85
2023-04-23T02:25:52.009Z,41.66
2023-04-23T02:26:51.989Z,43.14
2023-04-23T02:27:51.964Z,42.81
2023-04-23T02:28:52.000Z,43.57
2023-04-23T02:29:51.960Z,45.37
2023-04-23T02:30:51.962Z,48.25
2023-04-23T02:31:51.986Z,51.07
2023-04-23T02:32:51.959Z,55.38
2023-04-23T02:33:51.917Z,55.83
2023-04-23T02:34:51.900Z,56.83
2023-04-23T02:35:51.889Z,61.98
2023-04-23T02:36:51.880Z,58.18
2023-04-23T02:37:51.869Z,54.37
2023-04-23T02:38:51.864Z,51.51
2023-04-23T02:39:51.849Z,50.78
2023-04-23T02:40:52.851Z,50.14
2023-04-23T02:41:51.835Z,51.32
2023-04-23T02:42:51.810Z,53.94
2023-04-23T02:43:51.807Z,55.59
2023-04-23T02:44:51.796Z,56.82
2023-04-23T02:45:51.793Z,56.37
2023-04-23T02:46:51.837Z,55.78
2023-04-23T02:47:51.809Z,52.14
2023-04-23T02:48:51.762Z,54.32
2023-04-23T02:49:51.785Z,52.12
2023-04-23T02:50:51.740Z,50.10
2023-04-23T02:51:51.746Z,50.38
2023-04-23T02:52:51.727Z,49.66
2023-04-23T02:53:51.703Z,49.75
2023-04-23T02:54:51.695Z,49.14
2023-04-23T02:55:51.683Z,49.55
2023-04-23T02:56:51.690Z,49.01
2023-04-23T02:57:51.651Z,49.31
2023-04-23T02:58:52.675Z,49.58
2023-04-23T02:59:51.644Z,49.01
2023-04-23T03:00:51.684Z,48.34
2023-04-23T03:01:51.694Z,48.37
2023-04-23T03:02:51.694Z,48.00
2023-04-23T03:03:51.704Z,45.91
2023-04-23T03:04:51.595Z,48.72
2023-04-23T03:05:51.590Z,49.42
2023-04-23T03:06:51.596Z,52.20
2023-04-23T03:07:51.580Z,49.96
2023-04-23T03:08:51.555Z,48.46
2023-04-23T03:09:51.576Z,47.32
2023-04-23T03:10:51.542Z,46.11
2023-04-23T03:11:51.542Z,45.93
2023-04-23T03:12:51.519Z,46.29
2023-04-23T03:13:51.536Z,46.97
2023-04-23T03:14:51.500Z,46.07
2023-04-23T03:15:51.489Z,45.82
2023-04-23T03:16:51.503Z,46.52
2023-04-23T03:17:51.501Z,46.17
2023-04-23T03:18:51.486Z,50.11
2023-04-23T03:19:51.455Z,47.86
2023-04-23T03:20:51.457Z,47.44
2023-04-23T03:21:51.450Z,48.40
2023-04-23T03:22:51.419Z,49.13
2023-04-23T03:23:51.415Z,50.51
2023-04-23T03:24:51.407Z,50.53
2023-04-23T03:25:51.392Z,52.53
2023-04-23T03:26:51.404Z,52.94
2023-04-23T03:27:51.390Z,52.44
2023-04-23T03:28:51.378Z,53.41
2023-04-23T03:29:51.351Z,56.54
2023-04-23T03:30:51.390Z,58.45
2023-04-23T03:31:51.342Z,54.84
2023-04-23T03:32:51.375Z,55.20
2023-04-23T03:33:51.320Z,57.40
2023-04-23T03:34:51.312Z,60.41
2023-04-23T03:35:51.303Z,60.10
2023-04-23T03:36:51.316Z,59.98
2023-04-23T03:37:51.272Z,62.43
2023-04-23T03:38:51.258Z,59.49
2023-04-23T03:39:51.264Z,59.31
2023-04-23T03:40:51.255Z,58.36
2023-04-23T03:41:51.237Z,59.83
2023-04-23T03:42:51.242Z,56.77
2023-04-23T03:43:51.232Z,57.93
2023-04-23T03:44:51.206Z,58.66
2023-04-23T03:45:51.280Z,55.72
2023-04-23T03:46:51.212Z,59.27
2023-04-23T03:47:51.179Z,60.24
2023-04-23T03:48:51.164Z,58.21
2023-04-23T03:49:51.148Z,55.06
2023-04-23T03:50:51.144Z,54.81
2023-04-23T03:51:51.145Z,53.73
2023-04-23T03:52:51.124Z,57.44
2023-04-23T03:53:51.122Z,61.02
2023-04-23T03:54:51.106Z,61.08
2023-04-23T03:55:51.103Z,57.12
2023-04-23T03:56:51.102Z,56.07
2023-04-23T03:57:51.078Z,55.69
2023-04-23T03:58:51.069Z,54.99
2023-04-23T03:59:51.054Z,52.90
2023-04-23T04:00:51.053Z,47.04
2023-04-23T04:01:51.063Z,44.67
2023-04-23T04:02:51.203Z,45.48
2023-04-23T04:03:51.362Z,45.59
2023-04-23T04:04:51.194Z,45.21
2023-04-23T04:05:51.098Z,45.61
2023-04-23T04:06:50.993Z,45.32
2023-04-23T04:07:50.983Z,44.34
2023-04-23T04:08:50.961Z,44.05
2023-04-23T04:09:50.958Z,44.62
2023-04-23T04:10:50.948Z,44.34
2023-04-23T04:11:52.868Z,45.45
2023-04-23T04:12:50.928Z,49.47
2023-04-23T04:13:50.926Z,49.11
2023-04-23T04:14:50.913Z,49.48
2023-04-23T04:15:50.917Z,48.13
2023-04-23T04:16:50.885Z,51.55
2023-04-23T04:17:50.914Z,47.36
2023-04-23T04:18:50.871Z,46.20
2023-04-23T04:19:50.857Z,48.32
2023-04-23T04:20:50.845Z,45.82
2023-04-23T04:21:50.832Z,44.33
2023-04-23T04:22:50.840Z,51.51
2023-04-23T04:23:50.814Z,45.95
2023-04-23T04:24:50.807Z,45.51
2023-04-23T04:25:50.799Z,44.03
2023-04-23T04:26:50.788Z,41.57
2023-04-23T04:27:50.786Z,41.82
2023-04-23T04:28:50.765Z,49.69
2023-04-23T04:29:50.774Z,49.05
2023-04-23T04:30:50.747Z,45.08
2023-04-23T04:31:50.947Z,45.70
2023-04-23T04:32:50.809Z,40.82
2023-04-23T04:33:50.723Z,41.61
2023-04-23T04:34:50.712Z,40.34
2023-04-23T04:35:50.700Z,41.73
2023-04-23T04:36:50.684Z,41.84
2023-04-23T04:37:50.688Z,44.12
2023-04-23T04:38:50.662Z,42.33
2023-04-23T04:39:50.663Z,43.02
2023-04-23T04:40:50.660Z,43.36
2023-04-23T04:41:50.642Z,43.99
2023-04-23T04:42:50.646Z,43.61
2023-04-23T04:43:50.618Z,44.51
2023-04-23T04:44:50.610Z,48.05
2023-04-23T04:45:50.599Z,42.15
2023-04-23T04:46:50.645Z,42.25
2023-04-23T04:47:50.610Z,41.92
2023-04-23T04:48:50.569Z,45.38
2023-04-23T04:49:50.554Z,43.51
2023-04-23T04:50:50.547Z,43.75
2023-04-23T04:51:50.536Z,47.28
2023-04-23T04:52:50.549Z,44.22
2023-04-23T04:53:50.538Z,43.61
2023-04-23T04:54:50.506Z,42.43
2023-04-23T04:55:50.496Z,41.91
2023-04-23T04:56:50.484Z,41.47
2023-04-23T04:57:50.491Z,41.46
2023-04-23T04:58:50.465Z,40.69
2023-04-23T04:59:50.455Z,40.73
2023-04-23T05:00:50.487Z,45.14
2023-04-23T05:01:50.440Z,40.26
2023-04-23T05:02:50.557Z,42.88
2023-04-23T05:03:50.564Z,41.48
2023-04-23T05:04:50.428Z,43.37
2023-04-23T05:05:50.403Z,41.96
2023-04-23T05:06:50.388Z,44.86
2023-04-23T05:07:50.393Z,39.74
2023-04-23T05:08:50.369Z,38.88
2023-04-23T05:09:50.359Z,40.28
2023-04-23T05:10:50.381Z,47.92
2023-04-23T05:11:50.334Z,46.43
2023-04-23T05:12:50.341Z,40.90
2023-04-23T05:13:50.364Z,42.26
2023-04-23T05:14:51.749Z,46.79
2023-04-23T05:15:50.298Z,41.56
2023-04-23T05:16:50.327Z,40.40
2023-04-23T05:17:50.348Z,46.13
2023-04-23T05:18:50.273Z,41.80
2023-04-23T05:19:50.260Z,45.42
2023-04-23T05:20:50.258Z,44.74
2023-04-23T05:21:50.245Z,50.48
2023-04-23T05:22:50.244Z,44.22
2023-04-23T05:23:50.220Z,49.32
2023-04-23T05:24:50.214Z,42.34
2023-04-23T05:25:50.678Z,41.58
2023-04-23T05:26:50.296Z,40.99
2023-04-23T05:27:50.183Z,44.21
2023-04-23T05:28:50.176Z,41.33
2023-04-23T05:29:50.160Z,38.88
2023-04-23T05:30:50.148Z,41.31
2023-04-23T05:31:50.338Z,43.30
2023-04-23T05:32:50.166Z,47.41
2023-04-23T05:33:50.910Z,44.27
2023-04-23T05:34:50.109Z,44.31
2023-04-23T05:35:50.097Z,44.77
2023-04-23T05:36:50.092Z,43.45
2023-04-23T05:37:50.083Z,40.25
2023-04-23T05:38:50.165Z,40.58
2023-04-23T05:39:50.060Z,40.32
2023-04-23T05:40:50.043Z,41.67
2023-04-23T05:41:50.029Z,42.08
2023-04-23T05:42:50.041Z,43.82
2023-04-23T05:43:50.026Z,47.02
2023-04-23T05:44:50.003Z,47.40
2023-04-23T05:45:50.049Z,45.42
2023-04-23T05:46:49.996Z,42.09
2023-04-23T05:47:50.008Z,48.03
2023-04-23T05:48:49.964Z,49.65
2023-04-23T05:49:49.957Z,44.69
2023-04-23T05:50:49.953Z,45.16
2023-04-23T05:51:49.936Z,45.73
2023-04-23T05:52:49.940Z,43.86
2023-04-23T05:53:49.913Z,46.92
2023-04-23T05:54:49.908Z,41.01
2023-04-23T05:55:49.899Z,44.84
2023-04-23T05:56:49.884Z,46.36
2023-04-23T05:57:49.887Z,42.57
2023-04-23T05:58:49.868Z,45.45
2023-04-23T05:59:49.853Z,41.03
2023-04-23T06:00:49.883Z,41.79
2023-04-23T06:01:49.908Z,43.36
2023-04-23T06:02:49.928Z,48.99
2023-04-23T06:03:49.897Z,39.97
2023-04-23T06:04:50.736Z,40.65
2023-04-23T06:05:49.840Z,43.27
2023-04-23T06:06:49.799Z,44.11
2023-04-23T06:07:49.817Z,45.04
2023-04-23T06:08:49.767Z,42.22
2023-04-23T06:09:49.752Z,42.89
2023-04-23T06:10:49.753Z,44.74
2023-04-23T06:11:49.740Z,44.33
2023-04-23T06:12:49.741Z,47.21
2023-04-23T06:13:49.725Z,45.55
2023-04-23T06:14:49.712Z,43.78
2023-04-23T06:15:49.717Z,44.37
2023-04-23T06:16:49.694Z,47.90
2023-04-23T06:17:49.712Z,43.27
2023-04-23T06:18:50.617Z,42.66
2023-04-23T06:19:49.658Z,48.49
2023-04-23T06:20:49.648Z,41.55
2023-04-23T06:21:49.635Z,44.12
2023-04-23T06:22:49.680Z,39.99
2023-04-23T06:23:49.625Z,46.50
2023-04-23T06:24:49.611Z,44.10
2023-04-23T06:25:52.471Z,41.45
2023-04-23T06:26:49.598Z,41.76
2023-04-23T06:27:49.577Z,48.25
2023-04-23T06:28:49.587Z,46.75
2023-04-23T06:29:49.564Z,42.63
2023-04-23T06:30:49.553Z,46.75
2023-04-23T06:31:49.630Z,41.68
2023-04-23T06:32:49.543Z,40.80
2023-04-23T06:33:49.531Z,40.22
2023-04-23T06:34:59.350Z,46.94
2023-04-23T06:35:51.509Z,43.79
2023-04-23T06:36:49.479Z,43.41
2023-04-23T06:37:49.464Z,46.64
2023-04-23T06:38:49.471Z,43.16
2023-04-23T06:39:49.452Z,40.37
2023-04-23T06:40:49.441Z,48.05
2023-04-23T06:41:49.445Z,49.96
2023-04-23T06:42:49.422Z,45.45
2023-04-23T06:43:49.429Z,51.38
2023-04-23T06:44:49.411Z,46.44
2023-04-23T06:45:49.398Z,50.67
2023-04-23T06:46:49.408Z,40.87
2023-04-23T06:47:49.466Z,38.93
2023-04-23T06:48:49.372Z,52.84
2023-04-23T06:49:49.349Z,42.97
2023-04-23T06:50:49.343Z,47.55
2023-04-23T06:51:49.327Z,40.97
2023-04-23T06:52:49.314Z,39.84
2023-04-23T06:53:49.324Z,40.37
2023-04-23T06:54:49.303Z,42.39
2023-04-23T06:55:49.282Z,39.45
2023-04-23T06:56:49.278Z,38.70
2023-04-23T06:57:49.264Z,42.81
2023-04-23T06:58:49.273Z,45.84
2023-04-23T06:59:49.254Z,39.82
2023-04-23T07:00:49.244Z,39.79
2023-04-23T07:01:49.222Z,47.87
2023-04-23T07:02:49.302Z,42.81
2023-04-23T07:03:49.354Z,43.37
2023-04-23T07:04:49.217Z,39.02
2023-04-23T07:05:49.206Z,42.48
2023-04-23T07:06:49.184Z,39.28
2023-04-23T07:07:49.177Z,49.82
2023-04-23T07:08:49.181Z,44.13
2023-04-23T07:09:49.158Z,53.63
2023-04-23T07:10:49.150Z,48.50
2023-04-23T07:11:49.149Z,45.79
2023-04-23T07:12:49.136Z,50.01
2023-04-23T07:13:49.126Z,46.19
2023-04-23T07:14:50.110Z,45.51
2023-04-23T07:15:49.153Z,46.98
2023-04-23T07:16:49.127Z,42.82
2023-04-23T07:17:49.205Z,43.06
2023-04-23T07:18:49.084Z,41.05
2023-04-23T07:19:49.079Z,43.37
2023-04-23T07:20:49.058Z,47.03
2023-04-23T07:21:49.052Z,45.42
2023-04-23T07:22:49.038Z,44.22
2023-04-23T07:23:49.039Z,48.94
2023-04-23T07:24:49.019Z,48.62
2023-04-23T07:25:49.016Z,40.10
2023-04-23T07:26:48.999Z,42.88
2023-04-23T07:27:48.992Z,43.94
2023-04-23T07:28:50.752Z,44.47
2023-04-23T07:29:48.971Z,43.97
2023-04-23T07:30:48.963Z,44.72
2023-04-23T07:31:48.986Z,45.53
2023-04-23T07:32:48.963Z,42.80
2023-04-23T07:33:48.931Z,47.24
2023-04-23T07:34:48.939Z,43.21
2023-04-23T07:35:48.916Z,45.16
2023-04-23T07:36:48.905Z,46.14
2023-04-23T07:37:48.899Z,46.78
2023-04-23T07:38:48.885Z,48.03
2023-04-23T07:39:49.157Z,45.61
2023-04-23T07:40:48.868Z,42.81
2023-04-23T07:41:48.858Z,52.36
2023-04-23T07:42:48.841Z,45.40
2023-04-23T07:43:48.834Z,38.75
2023-04-23T07:44:48.839Z,45.65
2023-04-23T07:45:48.825Z,42.36
2023-04-23T07:46:48.798Z,47.37
2023-04-23T07:47:48.833Z,44.05
2023-04-23T07:48:48.796Z,50.74
2023-04-23T07:49:48.783Z,46.29
2023-04-23T07:50:48.770Z,41.18
2023-04-23T07:51:48.753Z,44.34
2023-04-23T07:52:48.744Z,46.65
2023-04-23T07:53:48.735Z,49.72
2023-04-23T07:54:48.740Z,46.18
2023-04-23T07:55:48.729Z,46.40
2023-04-23T07:56:48.707Z,48.48
2023-04-23T07:57:48.693Z,48.74
2023-04-23T07:58:48.692Z,46.33
2023-04-23T07:59:48.685Z,47.18
2023-04-23T08:00:48.667Z,39.69
2023-04-23T08:01:48.650Z,42.26
2023-04-23T08:02:48.740Z,42.99
2023-04-23T08:03:49.028Z,39.59
2023-04-23T08:04:48.931Z,40.21
2023-04-23T08:05:48.614Z,44.58
2023-04-23T08:06:48.610Z,46.64
2023-04-23T08:07:48.600Z,46.76
2023-04-23T08:08:48.666Z,43.12
2023-04-23T08:09:49.618Z,43.06
2023-04-23T08:10:48.559Z,40.04
2023-04-23T08:11:49.486Z,46.98
2023-04-23T08:12:48.692Z,39.69
2023-04-23T08:13:48.543Z,40.12
2023-04-23T08:14:49.202Z,44.27
2023-04-23T08:15:48.539Z,38.07
2023-04-23T08:16:48.499Z,38.69
2023-04-23T08:17:48.522Z,38.33
2023-04-23T08:19:03.724Z,39.85
2023-04-23T08:19:50.492Z,44.80
2023-04-23T08:20:49.185Z,45.57
2023-04-23T08:21:48.453Z,48.52
2023-04-23T08:22:48.446Z,40.77
2023-04-23T08:23:48.436Z,44.33
2023-04-23T08:24:48.442Z,42.36
2023-04-23T08:25:48.421Z,38.81
2023-04-23T08:26:48.399Z,38.87
2023-04-23T08:27:48.394Z,39.64
2023-04-23T08:28:48.383Z,43.09
2023-04-23T08:29:48.395Z,42.13
2023-04-23T08:30:48.371Z,46.07
2023-04-23T08:31:48.368Z,38.50
2023-04-23T08:32:48.411Z,38.78
2023-04-23T08:33:48.334Z,40.02
2023-04-23T08:34:48.337Z,43.10
2023-04-23T08:35:48.321Z,40.87
2023-04-23T08:36:48.306Z,38.99
2023-04-23T08:37:48.295Z,47.50
2023-04-23T08:38:48.289Z,50.74
2023-04-23T08:39:48.285Z,42.76
2023-04-23T08:40:48.268Z,40.86
2023-04-23T08:41:48.279Z,39.96
2023-04-23T08:42:48.255Z,44.50
2023-04-23T08:43:48.257Z,44.38
2023-04-23T08:44:48.234Z,40.34
2023-04-23T08:45:48.231Z,46.46
2023-04-23T08:46:48.235Z,45.33
2023-04-23T08:47:48.255Z,41.06
2023-04-23T08:48:48.205Z,48.93
2023-04-23T08:49:48.188Z,48.02
2023-04-23T08:50:48.167Z,44.40
2023-04-23T08:51:48.156Z,46.68
2023-04-23T08:52:48.153Z,40.81
2023-04-23T08:53:48.132Z,42.04
2023-04-23T08:54:48.147Z,47.96
2023-04-23T08:55:48.121Z,42.55
2023-04-23T08:56:48.111Z,42.72
2023-04-23T08:57:48.101Z,41.90
2023-04-23T08:58:48.072Z,39.26
2023-04-23T08:59:49.086Z,43.86
2023-04-23T09:00:48.102Z,47.01
2023-04-23T09:01:48.073Z,45.88
2023-04-23T09:02:48.241Z,42.71
2023-04-23T09:03:48.154Z,44.76
2023-04-23T09:04:50.772Z,46.15
2023-04-23T09:05:48.025Z,48.01
2023-04-23T09:06:48.008Z,47.56
2023-04-23T09:07:48.006Z,40.66
2023-04-23T09:08:48.005Z,48.38
2023-04-23T09:09:48.013Z,51.98
2023-04-23T09:10:47.964Z,47.78
2023-04-23T09:11:47.959Z,50.08
2023-04-23T09:12:47.951Z,45.00
2023-04-23T09:13:47.931Z,40.83
2023-04-23T09:14:47.940Z,47.13
2023-04-23T09:15:47.924Z,44.07
2023-04-23T09:16:47.942Z,43.13
2023-04-23T09:17:47.954Z,49.98
2023-04-23T09:18:47.882Z,44.73
2023-04-23T09:19:48.742Z,44.93
2023-04-23T09:20:47.873Z,42.99
2023-04-23T09:21:47.854Z,48.97
2023-04-23T09:22:48.026Z,51.21
2023-04-23T09:23:47.857Z,42.32
2023-04-23T09:24:48.892Z,44.67
2023-04-23T09:25:47.820Z,46.72
2023-04-23T09:28:15.015Z,0.00
2023-04-23T09:29:15.086Z,44.19
2023-04-23T09:30:15.009Z,41.39
2023-04-23T09:31:14.985Z,44.22
2023-04-23T09:32:15.065Z,48.50
2023-04-23T09:33:14.970Z,50.27
2023-04-23T09:34:14.946Z,46.57
2023-04-23T09:35:17.167Z,49.06
2023-04-23T09:36:14.978Z,45.90
2023-04-23T09:37:14.926Z,41.56
2023-04-23T09:38:14.938Z,50.83
2023-04-23T09:39:14.937Z,45.32
2023-04-23T09:40:14.927Z,46.25
2023-04-23T09:41:14.882Z,47.64
2023-04-23T09:42:14.873Z,48.78
2023-04-23T09:43:14.863Z,44.34
2023-04-23T09:44:14.871Z,45.38
2023-04-23T09:45:14.864Z,43.56
2023-04-23T09:46:14.867Z,47.01
2023-04-23T09:47:14.819Z,40.87
2023-04-23T09:48:14.813Z,48.10
2023-04-23T09:49:14.808Z,43.11
2023-04-23T09:50:14.813Z,41.39
2023-04-23T09:51:14.814Z,41.81
2023-04-23T09:52:14.777Z,41.44
2023-04-23T09:53:14.776Z,47.91
2023-04-23T09:54:14.755Z,45.07
2023-04-23T09:55:14.752Z,47.26
2023-04-23T09:56:15.737Z,42.88
2023-04-23T09:57:14.737Z,45.35
2023-04-23T09:58:14.725Z,46.93
2023-04-23T09:59:15.708Z,46.35
2023-04-23T10:00:15.407Z,45.67
2023-04-23T10:01:14.709Z,48.34
2023-04-23T10:02:14.801Z,45.91
2023-04-23T10:03:14.850Z,47.14
2023-04-23T10:04:14.952Z,53.89
2023-04-23T10:06:25.926Z,46.61
2023-04-23T10:07:20.126Z,43.84
2023-04-23T10:08:15.615Z,47.17
2023-04-23T10:09:14.604Z,41.54
2023-04-23T10:10:14.592Z,43.91
2023-04-23T10:13:15.563Z,43.90
2023-04-23T10:14:14.550Z,40.46
2023-04-23T10:15:14.556Z,39.98
2023-04-23T10:16:22.448Z,42.68
2023-04-23T10:17:16.524Z,39.90
2023-04-23T10:18:14.513Z,43.25
2023-04-23T10:19:14.509Z,44.81
2023-04-23T10:20:14.505Z,46.94
2023-04-23T10:21:14.492Z,49.89
2023-04-23T10:23:15.468Z,40.43
2023-04-23T10:24:14.451Z,43.56
2023-04-23T10:25:14.449Z,42.79
2023-04-23T10:26:14.462Z,43.69
2023-04-23T10:27:28.446Z,40.16
2023-04-23T10:28:16.420Z,44.13
2023-04-23T10:29:14.409Z,39.94
2023-04-23T10:30:14.399Z,39.81
2023-04-23T10:31:14.424Z,46.29
2023-04-23T10:32:14.385Z,43.05
2023-04-23T10:33:26.487Z,40.11
2023-04-23T10:34:16.381Z,40.98
2023-04-23T10:35:14.350Z,44.66
2023-04-23T10:36:14.359Z,44.76
2023-04-23T10:37:14.340Z,44.02
2023-04-23T10:38:14.326Z,42.96
2023-04-23T10:39:20.808Z,40.90
2023-04-23T10:40:15.436Z,40.85
2023-04-23T10:41:14.305Z,41.82
2023-04-23T10:42:14.295Z,41.34
2023-04-23T10:43:14.270Z,49.18
2023-04-23T10:44:16.057Z,46.96
2023-04-23T10:45:23.546Z,41.02
2023-04-23T10:46:16.304Z,40.10
2023-04-23T10:47:14.267Z,38.96
2023-04-23T10:48:14.245Z,42.84
2023-04-23T10:49:14.226Z,43.37
2023-04-23T10:50:14.230Z,50.51
2023-04-23T10:52:19.539Z,42.41
2023-04-23T10:53:16.168Z,44.90
2023-04-23T10:54:14.160Z,44.23
2023-04-23T10:55:14.167Z,41.10
2023-04-23T10:56:14.154Z,46.40
2023-04-23T10:57:14.226Z,52.34
2023-04-23T10:58:14.120Z,47.99
2023-04-23T10:59:14.119Z,42.70
2023-04-23T11:00:14.102Z,43.79
2023-04-23T11:01:14.111Z,40.76
2023-04-23T11:02:14.165Z,41.70
2023-04-23T11:03:14.175Z,48.35
2023-04-23T11:04:14.459Z,43.29
2023-04-23T11:05:14.055Z,42.05
2023-04-23T11:06:14.056Z,43.63
2023-04-23T11:07:14.044Z,41.80
2023-04-23T11:08:19.356Z,39.81
2023-04-23T11:09:16.017Z,45.99
2023-04-23T11:10:14.089Z,42.45
2023-04-23T11:11:14.013Z,49.62
2023-04-23T11:12:14.007Z,47.50
2023-04-23T11:13:13.982Z,44.23
2023-04-23T11:14:13.972Z,45.21
2023-04-23T11:15:13.970Z,43.72
2023-04-23T11:16:13.996Z,46.37
2023-04-23T11:17:13.944Z,42.87
2023-04-23T11:18:13.951Z,44.34
2023-04-23T11:19:13.931Z,43.21
2023-04-23T11:20:14.179Z,44.47
2023-04-23T11:21:13.908Z,41.70
2023-04-23T11:22:13.890Z,42.76
2023-04-23T11:23:13.879Z,44.43
2023-04-23T11:24:13.874Z,44.38
2023-04-23T11:25:13.880Z,46.10
2023-04-23T11:26:13.870Z,44.55
2023-04-23T11:27:13.844Z,40.98
2023-04-23T11:28:13.840Z,46.68
2023-04-23T11:29:13.827Z,41.90
2023-04-23T11:30:13.939Z,42.63
2023-04-23T11:31:13.818Z,41.48
2023-04-23T11:32:13.826Z,46.15
2023-04-23T11:33:13.817Z,45.58
2023-04-23T11:34:13.764Z,51.60
2023-04-23T11:35:14.756Z,48.43
2023-04-23T11:36:13.766Z,43.83
2023-04-23T11:37:13.742Z,49.45
2023-04-23T11:38:13.730Z,44.48
2023-04-23T11:39:13.723Z,46.96
2023-04-23T11:40:13.708Z,45.45
2023-04-23T11:41:13.708Z,50.73
2023-04-23T11:42:13.701Z,51.68
2023-04-23T11:43:13.681Z,46.84
2023-04-23T11:44:13.679Z,45.32
2023-04-23T11:45:13.673Z,43.06
2023-04-23T11:46:13.664Z,44.40
2023-04-23T11:47:13.681Z,43.61
2023-04-23T11:48:13.635Z,45.85
2023-04-23T11:49:13.634Z,46.71
2023-04-23T11:50:13.625Z,42.25
2023-04-23T11:51:13.622Z,43.07
2023-04-23T11:52:13.611Z,40.83
2023-04-23T11:53:13.587Z,46.10
2023-04-23T11:54:13.766Z,54.52
2023-04-23T11:55:13.563Z,43.97
2023-04-23T11:56:13.561Z,45.33
2023-04-23T11:57:13.574Z,41.59
2023-04-23T11:58:13.541Z,43.57
2023-04-23T11:59:13.531Z,42.47
2023-04-23T12:00:13.521Z,42.60
2023-04-23T12:01:13.524Z,44.72
2023-04-23T12:02:13.602Z,42.76
2023-04-23T12:03:13.544Z,46.24
2023-04-23T12:04:13.867Z,51.21
2023-04-23T12:05:13.533Z,52.94
2023-04-23T12:06:13.468Z,48.92
2023-04-23T12:07:23.433Z,51.64
2023-04-23T12:08:15.447Z,41.33
2023-04-23T12:09:13.438Z,48.00
2023-04-23T12:10:15.407Z,43.82
2023-04-23T12:11:13.408Z,47.12
2023-04-23T12:12:13.415Z,44.15
2023-04-23T12:13:14.277Z,45.28
2023-04-23T12:14:13.391Z,45.27
2023-04-23T12:15:13.370Z,45.00
2023-04-23T12:16:13.406Z,43.58
2023-04-23T12:17:13.367Z,47.83
2023-04-23T12:18:13.354Z,46.56
2023-04-23T12:19:13.331Z,44.73
2023-04-23T12:20:13.320Z,46.37
2023-04-23T12:21:13.334Z,45.90
2023-04-23T12:22:13.322Z,48.21
2023-04-23T12:23:13.319Z,44.21
2023-04-23T12:24:13.304Z,47.26
2023-04-23T12:25:13.275Z,45.61
2023-04-23T12:26:13.277Z,45.61
2023-04-23T12:27:13.253Z,39.76
2023-04-23T12:28:13.241Z,42.15
2023-04-23T12:29:13.246Z,43.64
2023-04-23T12:30:13.242Z,43.34
2023-04-23T12:31:13.277Z,39.86
2023-04-23T12:32:13.205Z,45.64
2023-04-23T12:33:13.234Z,46.00
2023-04-23T12:34:13.185Z,40.75
2023-04-23T12:35:13.197Z,42.83
2023-04-23T12:36:13.170Z,46.58
2023-04-23T12:37:13.168Z,49.21
2023-04-23T12:38:13.140Z,53.64
2023-04-23T12:39:13.132Z,52.89
2023-04-23T12:40:13.152Z,47.42
2023-04-23T12:41:13.117Z,43.10
2023-04-23T12:42:13.159Z,41.87
2023-04-23T12:43:13.099Z,45.06
2023-04-23T12:44:13.101Z,42.42
2023-04-23T12:45:13.093Z,45.16
2023-04-23T12:46:13.087Z,49.34
2023-04-23T12:47:13.080Z,42.93
2023-04-23T12:48:13.053Z,43.05
2023-04-23T12:49:13.037Z,47.15
2023-04-23T12:50:13.079Z,41.96
2023-04-23T12:51:13.028Z,43.24
2023-04-23T12:52:14.134Z,45.02
2023-04-23T12:53:14.012Z,44.22
2023-04-23T12:54:13.001Z,43.10
2023-04-23T12:55:12.979Z,44.56
2023-04-23T12:56:12.968Z,42.54
2023-04-23T12:57:13.033Z,43.64
2023-04-23T12:58:12.971Z,46.05
2023-04-23T12:59:12.937Z,48.12